Time;durP1;ratioP1;P1;durP2;ratioP2;P2;SDS_P1;SDS_P2;PMS_P1;PMS_P2;Temp;Humidity;BMP_temperature;BMP_pressure;BME280_temperature;BME280_humidity;BME280_pressure;Samples;Min_cycle;Max_cycle;Signal;HPM_P1;HPM_P2
2022/06/22 00:00:26;;;;;;;;;;;;;;;15.72;54.85;101256.59;5022354;28;19928;-86
2022/06/22 00:02:52;;;;;;;;;;;;;;;15.71;55.03;101260.16;5026139;28;19975;-87
2022/06/22 00:05:21;;;;;;;;;;;;;;;15.70;55.60;101267.31;5019584;28;19920;-87
2022/06/22 00:07:54;;;;;;;;;;;;;;;15.67;55.08;101261.31;5028445;28;19917;-87
2022/06/22 00:10:21;;;;;;;;;;;;;;;15.64;54.84;101265.00;5015472;28;20007;-87
2022/06/22 00:12:51;;;;;;;;;;;;;;;15.60;54.89;101252.75;5026810;28;20420;-87
2022/06/22 00:15:20;;;;;;;;;;;;;;;15.61;54.75;101248.25;5022637;28;20439;-87
2022/06/22 00:17:45;;;;;;;;;;;;;;;15.58;54.43;101249.31;5021894;28;19917;-87
2022/06/22 00:20:23;;;;;;;;;;;;;;;15.58;54.94;101241.31;5024057;28;19924;-87
2022/06/22 00:22:51;;;;;;;;;;;;;;;15.59;55.72;101234.16;5042099;28;19909;-87
2022/06/22 00:25:21;;;;;;;;;;;;;;;15.55;56.13;101226.34;5023649;28;20361;-87
2022/06/22 00:27:47;;;;;;;;;;;;;;;15.51;55.65;101213.25;5023861;28;19917;-87
2022/06/22 00:30:12;;;;;;;;;;;;;;;15.46;56.72;101220.66;5020542;28;19920;-87
2022/06/22 00:32:37;;;;;;;;;;;;;;;15.29;56.81;101230.44;5026387;28;19997;-87
2022/06/22 00:35:21;;;;;;;;;;;;;;;15.27;55.72;101234.09;5023657;28;21112;-87
2022/06/22 00:37:46;;;;;;;;;;;;;;;15.29;55.80;101237.53;5025937;28;19925;-87
2022/06/22 00:40:14;;;;;;;;;;;;;;;15.35;55.62;101237.22;5027382;28;19974;-87
2022/06/22 00:42:44;;;;;;;;;;;;;;;15.36;55.94;101225.63;5015324;28;19917;-87
2022/06/22 00:45:12;;;;;;;;;;;;;;;15.32;56.86;101222.25;5019577;28;20376;-87
2022/06/22 00:47:46;;;;;;;;;;;;;;;15.31;55.68;101217.88;5023137;28;19920;-87
2022/06/22 00:50:20;;;;;;;;;;;;;;;15.22;56.15;101231.69;5021504;28;19919;-87
2022/06/22 00:53:00;;;;;;;;;;;;;;;15.22;56.78;101247.66;5025392;28;19909;-87
2022/06/22 00:55:30;;;;;;;;;;;;;;;15.24;56.77;101237.78;5025151;28;19952;-88
2022/06/22 00:57:59;;;;;;;;;;;;;;;15.19;57.15;101231.84;5019865;28;20299;-87
2022/06/22 01:00:27;;;;;;;;;;;;;;;15.15;56.90;101221.44;5023283;28;20299;-87
2022/06/22 01:02:58;;;;;;;;;;;;;;;15.13;57.55;101228.66;5021917;28;19917;-87
2022/06/22 01:05:27;;;;;;;;;;;;;;;15.06;56.99;101225.44;5019849;28;20402;-87
2022/06/22 01:07:55;;;;;;;;;;;;;;;15.00;57.52;101223.09;5024808;28;19916;-87
2022/06/22 01:10:30;;;;;;;;;;;;;;;15.01;57.56;101217.72;5026485;28;20403;-87
2022/06/22 01:13:01;;;;;;;;;;;;;;;14.99;58.54;101210.75;5027372;28;19917;-87
2022/06/22 01:15:27;;;;;;;;;;;;;;;15.00;58.06;101220.44;5024237;28;19928;-87
2022/06/22 01:17:56;;;;;;;;;;;;;;;14.96;58.42;101222.41;5028588;28;19956;-87
2022/06/22 01:20:31;;;;;;;;;;;;;;;14.78;59.01;101223.34;5031226;28;20315;-86
2022/06/22 01:23:15;;;;;;;;;;;;;;;14.71;58.78;101248.56;5022428;28;19910;-87
2022/06/22 01:25:58;;;;;;;;;;;;;;;14.67;60.41;101262.97;5031299;28;19912;-87
2022/06/22 01:28:24;;;;;;;;;;;;;;;14.52;60.22;101262.81;5027050;28;20398;-87
2022/06/22 01:30:52;;;;;;;;;;;;;;;14.53;60.48;101240.56;5028849;28;19917;-87
2022/06/22 01:33:23;;;;;;;;;;;;;;;14.58;60.25;101234.16;5021422;28;20376;-87
2022/06/22 01:35:51;;;;;;;;;;;;;;;14.58;60.50;101235.03;5029955;28;20203;-87
2022/06/22 01:38:24;;;;;;;;;;;;;;;14.60;59.78;101225.19;5025898;28;19991;-87
2022/06/22 01:41:10;;;;;;;;;;;;;;;14.64;60.11;101212.56;5030146;28;19920;-87
2022/06/22 01:43:43;;;;;;;;;;;;;;;14.71;61.54;101204.19;5013010;28;20368;-87
2022/06/22 01:46:18;;;;;;;;;;;;;;;14.75;63.18;101197.78;5022881;28;19920;-87
2022/06/22 01:48:52;;;;;;;;;;;;;;;14.79;61.61;101193.16;5023400;28;20315;-87
2022/06/22 01:51:23;;;;;;;;;;;;;;;14.76;60.04;101199.47;5029658;28;19920;-87
2022/06/22 01:53:53;;;;;;;;;;;;;;;14.72;60.59;101202.38;5023488;28;19932;-87
2022/06/22 01:56:28;;;;;;;;;;;;;;;14.66;60.85;101211.53;5031660;28;20305;-87
2022/06/22 01:58:53;;;;;;;;;;;;;;;14.62;60.24;101207.31;5026431;28;19970;-87
2022/06/22 02:01:26;;;;;;;;;;;;;;;14.66;63.17;101216.00;5025798;28;19920;-87
2022/06/22 02:04:10;;;;;;;;;;;;;;;14.70;61.07;101201.63;5025951;28;20020;-87
2022/06/22 02:09:29;;;;;;;;;;;;;;;14.64;61.75;101196.59;5025945;28;19920;-86
2022/06/22 02:12:18;;;;;;;;;;;;;;;14.59;60.82;101211.94;5026862;28;19960;-87
2022/06/22 02:14:46;;;;;;;;;;;;;;;14.60;60.77;101213.69;5028246;28;19920;-87
2022/06/22 02:17:13;;;;;;;;;;;;;;;14.58;60.97;101212.88;5027947;28;19912;-87
2022/06/22 02:19:40;;;;;;;;;;;;;;;14.58;60.15;101200.44;5024233;28;20203;-87
2022/06/22 02:22:09;;;;;;;;;;;;;;;14.59;60.63;101202.13;5027822;28;20324;-87
2022/06/22 02:24:46;;;;;;;;;;;;;;;14.60;59.79;101203.03;5026741;28;20439;-86
2022/06/22 02:27:18;;;;;;;;;;;;;;;14.60;60.28;101213.69;5030461;28;19921;-86
2022/06/22 02:29:47;;;;;;;;;;;;;;;14.59;60.34;101204.81;5024377;28;20322;-86
2022/06/22 02:32:18;;;;;;;;;;;;;;;14.60;61.54;101198.56;5023142;28;20003;-87
2022/06/22 02:34:46;;;;;;;;;;;;;;;14.62;62.17;101182.50;5025946;28;19948;-87
2022/06/22 02:37:12;;;;;;;;;;;;;;;14.62;61.46;101175.38;5026846;28;19909;-87
2022/06/22 02:39:43;;;;;;;;;;;;;;;14.56;60.92;101170.38;5027544;28;20303;-86
2022/06/22 02:44:52;;;;;;;;;;;;;;;14.47;60.43;101163.72;5026016;28;19999;-87
2022/06/22 02:47:22;;;;;;;;;;;;;;;14.42;60.74;101176.38;5021527;28;20492;-86
2022/06/22 02:50:03;;;;;;;;;;;;;;;14.39;59.79;101176.53;5026462;28;20004;-86
2022/06/22 02:52:40;;;;;;;;;;;;;;;14.39;60.62;101183.66;5025737;28;19960;-87
2022/06/22 02:55:09;;;;;;;;;;;;;;;14.41;60.36;101179.09;5026739;28;20403;-86
2022/06/22 02:57:48;;;;;;;;;;;;;;;14.41;60.77;101181.75;5029821;28;19913;-86
2022/06/22 03:00:14;;;;;;;;;;;;;;;14.39;60.88;101186.31;5026404;28;19920;-87
2022/06/22 03:02:41;;;;;;;;;;;;;;;14.38;60.66;101185.44;5024365;28;20007;-86
2022/06/22 03:05:07;;;;;;;;;;;;;;;14.38;61.05;101188.13;5027220;28;20003;-86
2022/06/22 03:07:34;;;;;;;;;;;;;;;14.38;60.85;101195.25;5029284;28;20328;-87
2022/06/22 03:10:02;;;;;;;;;;;;;;;14.36;61.25;101200.66;5026576;28;20003;-87
2022/06/22 03:12:28;;;;;;;;;;;;;;;14.36;60.97;101197.97;5026473;28;19917;-87
2022/06/22 03:14:56;;;;;;;;;;;;;;;14.34;60.57;101201.63;5023329;28;19916;-86
2022/06/22 03:17:26;;;;;;;;;;;;;;;14.35;60.32;101198.91;5024668;28;19932;-87
2022/06/22 03:20:00;;;;;;;;;;;;;;;14.34;59.58;101197.19;5028111;28;19924;-87
2022/06/22 03:22:26;;;;;;;;;;;;;;;14.32;60.13;101195.56;5023503;28;19917;-87
2022/06/22 03:24:55;;;;;;;;;;;;;;;14.24;60.43;101190.59;5019496;28;19917;-86
2022/06/22 03:27:23;;;;;;;;;;;;;;;14.23;60.57;101183.56;5026263;28;19921;-86
2022/06/22 03:29:56;;;;;;;;;;;;;;;14.20;62.60;101179.25;5025827;28;20118;-86
2022/06/22 03:32:28;;;;;;;;;;;;;;;14.20;63.92;101179.25;5027998;28;19916;-86
2022/06/22 03:34:59;;;;;;;;;;;;;;;14.17;61.86;101176.72;5017856;28;19921;-86
2022/06/22 03:37:28;;;;;;;;;;;;;;;14.14;61.15;101184.88;5026043;28;19913;-86
2022/06/22 03:39:56;;;;;;;;;;;;;;;14.14;61.91;101173.41;5021229;28;19921;-86
2022/06/22 03:42:44;;;;;;;;;;;;;;;14.18;64.01;101183.81;5022841;28;19921;-86
2022/06/22 03:45:13;;;;;;;;;;;;;;;14.22;65.10;101180.06;5019132;28;19917;-86
2022/06/22 03:47:38;;;;;;;;;;;;;;;14.25;64.70;101179.88;5023214;28;19925;-86
2022/06/22 03:50:07;;;;;;;;;;;;;;;14.26;64.73;101162.97;5021194;28;19966;-86
2022/06/22 03:52:39;;;;;;;;;;;;;;;14.24;63.74;101164.88;5025149;28;19917;-86
2022/06/22 03:55:10;;;;;;;;;;;;;;;14.27;65.37;101166.53;5022793;28;20396;-86
2022/06/22 03:57:37;;;;;;;;;;;;;;;14.32;64.71;101169.81;5028202;28;19912;-86
2022/06/22 04:00:04;;;;;;;;;;;;;;;14.33;65.22;101163.53;5025251;28;20426;-86
2022/06/22 04:02:29;;;;;;;;;;;;;;;14.35;65.39;101159.00;5026022;28;20374;-86
2022/06/22 04:04:55;;;;;;;;;;;;;;;14.37;65.73;101161.59;5024038;28;19913;-86
2022/06/22 04:07:22;;;;;;;;;;;;;;;14.40;65.24;101164.09;5028666;28;20387;-86
2022/06/22 04:09:52;;;;;;;;;;;;;;;14.42;66.55;101167.53;5022059;28;20012;-86
2022/06/22 04:12:23;;;;;;;;;;;;;;;14.43;66.07;101163.94;5024664;28;19913;-86
2022/06/22 04:14:48;;;;;;;;;;;;;;;14.44;64.80;101161.19;5024333;28;19913;-86
2022/06/22 04:17:20;;;;;;;;;;;;;;;14.46;64.18;101164.66;5026915;28;19913;-86
2022/06/22 04:19:57;;;;;;;;;;;;;;;14.50;63.98;101173.34;5023794;28;19925;-87
2022/06/22 04:22:23;;;;;;;;;;;;;;;14.49;63.61;101168.97;5038149;28;19927;-87
2022/06/22 04:24:52;;;;;;;;;;;;;;;14.51;63.76;101175.09;5026805;28;20355;-86
2022/06/22 04:27:20;;;;;;;;;;;;;;;14.49;64.60;101175.16;5022803;28;19924;-87
2022/06/22 04:29:57;;;;;;;;;;;;;;;14.50;62.41;101179.56;5020900;28;20328;-86
2022/06/22 04:32:24;;;;;;;;;;;;;;;14.55;63.60;101176.66;5022003;28;20302;-87
2022/06/22 04:34:56;;;;;;;;;;;;;;;14.56;64.51;101175.72;5020527;28;20371;-86
2022/06/22 04:37:29;;;;;;;;;;;;;;;14.63;63.59;101184.22;5020510;28;19917;-87
2022/06/22 04:40:00;;;;;;;;;;;;;;;14.65;64.45;101191.22;5023184;28;19921;-87
2022/06/22 04:42:26;;;;;;;;;;;;;;;14.73;65.20;101190.78;5022927;28;19917;-86
2022/06/22 04:44:51;;;;;;;;;;;;;;;14.81;66.45;101188.59;5022272;28;19967;-86
2022/06/22 04:47:26;;;;;;;;;;;;;;;14.89;66.79;101182.88;5020821;28;19967;-86
2022/06/22 04:49:53;;;;;;;;;;;;;;;14.95;66.97;101183.41;5026443;28;20284;-86
2022/06/22 04:52:21;;;;;;;;;;;;;;;15.00;67.41;101184.03;5026035;28;20308;-86
2022/06/22 04:54:48;;;;;;;;;;;;;;;15.07;67.27;101189.91;5024068;28;20422;-86
2022/06/22 04:57:26;;;;;;;;;;;;;;;15.12;66.76;101185.19;5028138;28;19913;-86
2022/06/22 04:59:51;;;;;;;;;;;;;;;15.18;66.07;101194.66;5025275;28;20382;-86
2022/06/22 05:02:19;;;;;;;;;;;;;;;15.19;65.40;101201.69;5024433;28;19921;-86
2022/06/22 05:04:48;;;;;;;;;;;;;;;15.22;65.60;101205.06;5022180;28;19920;-86
2022/06/22 05:07:13;;;;;;;;;;;;;;;15.27;64.52;101203.00;5014245;28;19920;-87
2022/06/22 05:10:00;;;;;;;;;;;;;;;15.33;65.41;101212.44;5021471;28;19921;-86
2022/06/22 05:12:27;;;;;;;;;;;;;;;15.40;66.21;101207.66;5025720;28;19913;-86
2022/06/22 05:14:55;;;;;;;;;;;;;;;15.45;65.69;101216.28;5017144;28;19947;-86
2022/06/22 05:17:20;;;;;;;;;;;;;;;15.48;65.86;101222.31;5024235;28;20418;-86
2022/06/22 05:19:48;;;;;;;;;;;;;;;15.56;67.94;101216.53;5025228;28;19921;-86
2022/06/22 05:22:15;;;;;;;;;;;;;;;15.65;68.30;101217.88;5027207;28;19920;-86
2022/06/22 05:24:44;;;;;;;;;;;;;;;15.71;68.47;101213.03;5027925;28;19920;-86
2022/06/22 05:27:11;;;;;;;;;;;;;;;15.77;69.07;101215.38;5032543;28;21554;-86
2022/06/22 05:29:43;;;;;;;;;;;;;;;15.82;69.94;101213.31;5025752;28;19971;-86
2022/06/22 05:32:11;;;;;;;;;;;;;;;15.91;69.71;101227.09;5025649;28;19917;-87
2022/06/22 05:34:38;;;;;;;;;;;;;;;15.99;68.72;101222.16;5018178;28;19913;-86
2022/06/22 05:37:06;;;;;;;;;;;;;;;16.03;68.81;101219.22;5021913;28;20253;-86
2022/06/22 05:39:36;;;;;;;;;;;;;;;16.08;68.80;101217.16;5021401;28;20254;-86
2022/06/22 05:42:02;;;;;;;;;;;;;;;16.15;69.01;101224.84;5023585;28;20289;-86
2022/06/22 05:44:28;;;;;;;;;;;;;;;16.23;69.24;101218.13;5026508;28;20368;-86
2022/06/22 05:46:55;;;;;;;;;;;;;;;16.28;68.63;101220.53;5027369;28;19924;-86
2022/06/22 05:49:22;;;;;;;;;;;;;;;16.30;69.18;101229.28;5022611;28;20331;-86
2022/06/22 05:51:55;;;;;;;;;;;;;;;16.36;68.20;101230.72;5027235;28;19988;-86
2022/06/22 05:54:37;;;;;;;;;;;;;;;16.39;67.22;101226.06;5022868;28;20252;-86
2022/06/22 05:57:17;;;;;;;;;;;;;;;16.47;67.55;101237.19;5022985;28;20004;-86
2022/06/22 05:59:50;;;;;;;;;;;;;;;16.56;67.67;101241.13;5023887;28;20354;-86
2022/06/22 06:02:15;;;;;;;;;;;;;;;16.66;67.72;101239.63;5026007;28;19921;-86
2022/06/22 06:04:59;;;;;;;;;;;;;;;16.78;68.09;101243.38;5024250;28;20020;-86
2022/06/22 06:07:37;;;;;;;;;;;;;;;16.87;67.29;101250.00;5030208;28;19959;-86
2022/06/22 06:10:05;;;;;;;;;;;;;;;16.96;67.46;101254.78;5025927;28;19919;-86
2022/06/22 06:12:33;;;;;;;;;;;;;;;17.03;66.65;101258.81;5028007;28;19912;-86
2022/06/22 06:15:02;;;;;;;;;;;;;;;17.09;66.97;101253.94;5022630;28;19921;-86
2022/06/22 06:17:29;;;;;;;;;;;;;;;17.25;67.21;101258.34;5028000;28;19924;-86
2022/06/22 06:19:56;;;;;;;;;;;;;;;17.45;66.39;101258.00;5022848;28;19917;-86
2022/06/22 06:22:22;;;;;;;;;;;;;;;17.70;65.39;101262.66;5023039;28;19921;-86
2022/06/22 06:27:40;;;;;;;;;;;;;;;18.38;64.94;101259.19;5028403;28;19928;-86
2022/06/22 06:30:15;;;;;;;;;;;;;;;18.63;64.96;101255.72;5026074;28;20012;-86
2022/06/22 06:32:53;;;;;;;;;;;;;;;18.91;64.32;101254.75;5025783;28;20015;-87
2022/06/22 06:35:28;;;;;;;;;;;;;;;19.16;62.68;101253.91;5029391;28;20363;-87
2022/06/22 06:38:02;;;;;;;;;;;;;;;19.51;62.58;101247.88;5032256;28;20336;-87
2022/06/22 06:40:34;;;;;;;;;;;;;;;19.67;61.68;101256.56;5026974;28;19912;-87
2022/06/22 06:43:19;;;;;;;;;;;;;;;19.77;61.05;101265.72;5029281;28;20367;-87
2022/06/22 06:45:45;;;;;;;;;;;;;;;20.03;60.75;101271.00;5024082;28;19913;-87
2022/06/22 06:48:15;;;;;;;;;;;;;;;20.13;59.67;101253.25;5026679;28;20249;-85
2022/06/22 06:50:45;;;;;;;;;;;;;;;20.21;60.50;101245.47;5033571;28;19970;-86
2022/06/22 06:53:10;;;;;;;;;;;;;;;20.50;59.82;101237.09;5032077;28;19919;-86
2022/06/22 06:55:48;;;;;;;;;;;;;;;20.59;58.73;101229.19;5032899;28;20012;-86
2022/06/22 06:58:36;;;;;;;;;;;;;;;20.79;59.54;101224.97;5029835;28;19917;-86
2022/06/22 07:01:02;;;;;;;;;;;;;;;20.96;58.54;101221.00;5020867;28;19963;-86
2022/06/22 07:03:30;;;;;;;;;;;;;;;21.15;57.89;101228.47;5033473;28;20403;-86
2022/06/22 07:05:56;;;;;;;;;;;;;;;21.25;56.83;101221.41;5029622;28;19913;-86
2022/06/22 07:08:25;;;;;;;;;;;;;;;21.26;55.17;101220.41;5032336;28;19913;-86
2022/06/22 07:10:53;;;;;;;;;;;;;;;21.28;56.75;101220.31;5029875;28;20480;-86
2022/06/22 07:13:24;;;;;;;;;;;;;;;21.41;56.36;101220.22;5033376;28;20380;-86
2022/06/22 07:15:53;;;;;;;;;;;;;;;21.49;55.63;101217.75;5023902;28;20063;-86
2022/06/22 07:18:34;;;;;;;;;;;;;;;21.63;56.02;101225.59;5032093;28;19924;-86
2022/06/22 07:21:05;;;;;;;;;;;;;;;21.81;55.45;101224.09;5033402;28;20009;-86
2022/06/22 07:23:38;;;;;;;;;;;;;;;21.98;55.03;101227.25;5032218;28;20399;-86
2022/06/22 07:26:25;;;;;;;;;;;;;;;22.09;55.34;101219.13;5032868;28;20364;-86
2022/06/22 07:28:54;;;;;;;;;;;;;;;22.25;55.05;101219.63;5031587;28;19917;-86
2022/06/22 07:31:27;;;;;;;;;;;;;;;22.46;54.26;101214.25;5030987;28;19975;-86
2022/06/22 07:33:59;;;;;;;;;;;;;;;22.74;52.50;101201.13;5033858;28;20319;-86
2022/06/22 07:36:24;;;;;;;;;;;;;;;23.10;52.11;101198.00;5033255;28;19955;-86
2022/06/22 07:38:54;;;;;;;;;;;;;;;23.25;51.49;101190.38;5032228;28;19917;-86
2022/06/22 07:41:22;;;;;;;;;;;;;;;23.28;51.47;101184.72;5033086;28;20432;-86
2022/06/22 07:43:49;;;;;;;;;;;;;;;23.38;50.33;101185.63;5031036;28;19917;-86
2022/06/22 07:46:18;;;;;;;;;;;;;;;23.57;50.10;101195.63;5033218;28;19954;-86
2022/06/22 07:48:46;;;;;;;;;;;;;;;23.79;48.44;101204.56;5030913;28;19909;-86
2022/06/22 07:51:16;;;;;;;;;;;;;;;24.02;49.48;101202.47;5045623;28;19920;-86
2022/06/22 07:53:44;;;;;;;;;;;;;;;24.20;48.34;101208.84;5032473;28;20391;-86
2022/06/22 07:56:09;;;;;;;;;;;;;;;24.30;47.29;101209.75;5033051;28;20352;-86
2022/06/22 07:58:37;;;;;;;;;;;;;;;24.26;47.62;101200.22;5026996;28;20028;-86
2022/06/22 08:01:07;;;;;;;;;;;;;;;24.24;47.34;101204.88;5025210;28;20643;-86
2022/06/22 08:03:36;;;;;;;;;;;;;;;24.18;47.80;101210.84;5027723;28;20133;-86
2022/06/22 08:06:04;;;;;;;;;;;;;;;24.22;48.00;101209.59;5027167;28;19949;-86
2022/06/22 08:08:31;;;;;;;;;;;;;;;24.24;48.79;101202.19;5028636;28;19917;-86
2022/06/22 08:11:02;;;;;;;;;;;;;;;24.33;48.50;101212.13;5027975;28;19917;-86
2022/06/22 08:13:31;;;;;;;;;;;;;;;24.33;47.99;101214.84;5015034;28;20361;-87
2022/06/22 08:16:05;;;;;;;;;;;;;;;24.33;47.70;101220.25;5021525;28;20276;-86
2022/06/22 08:18:30;;;;;;;;;;;;;;;24.48;45.20;101212.63;5018355;28;19921;-86
2022/06/22 08:20:57;;;;;;;;;;;;;;;25.04;45.11;101216.38;5027935;28;20308;-87
2022/06/22 08:23:27;;;;;;;;;;;;;;;25.84;44.71;101221.25;5030197;28;19913;-87
2022/06/22 08:25:53;;;;;;;;;;;;;;;26.54;43.66;101216.06;5025461;28;20063;-86
2022/06/22 08:28:20;;;;;;;;;;;;;;;26.75;42.71;101220.28;5028947;28;19917;-86
2022/06/22 08:30:47;;;;;;;;;;;;;;;27.19;41.96;101223.84;5020478;28;20021;-87
2022/06/22 08:33:13;;;;;;;;;;;;;;;27.63;41.95;101227.28;5028302;28;19909;-86
2022/06/22 08:35:42;;;;;;;;;;;;;;;27.85;40.57;101225.88;5017560;28;19913;-86
2022/06/22 08:38:10;;;;;;;;;;;;;;;28.30;37.65;101221.03;5026826;28;20394;-86
2022/06/22 08:40:38;;;;;;;;;;;;;;;28.54;37.24;101222.97;5019372;28;19913;-86
2022/06/22 08:43:11;;;;;;;;;;;;;;;28.68;38.88;101230.47;5026665;28;19913;-85
2022/06/22 08:45:44;;;;;;;;;;;;;;;28.91;37.65;101227.88;5025472;28;19913;-86
2022/06/22 08:48:21;;;;;;;;;;;;;;;29.14;38.05;101222.59;5025304;28;19924;-86
2022/06/22 08:51:04;;;;;;;;;;;;;;;29.42;35.23;101229.31;5018853;28;19919;-86
2022/06/22 08:53:48;;;;;;;;;;;;;;;29.40;35.85;101228.66;5022681;28;19916;-86
2022/06/22 08:56:32;;;;;;;;;;;;;;;29.40;35.97;101225.09;5024577;28;19920;-86
2022/06/22 08:59:16;;;;;;;;;;;;;;;29.20;34.78;101219.19;5014297;28;19917;-85
2022/06/22 09:02:07;;;;;;;;;;;;;;;29.20;35.64;101219.19;5020238;28;19952;-85
2022/06/22 09:04:51;;;;;;;;;;;;;;;29.22;34.16;101220.69;4999394;28;19917;-86
2022/06/22 09:07:29;;;;;;;;;;;;;;;29.27;35.67;101214.75;5026188;28;19913;-86
2022/06/22 09:09:55;;;;;;;;;;;;;;;29.20;34.98;101216.47;5023398;28;19916;-86
2022/06/22 09:12:32;;;;;;;;;;;;;;;29.14;36.42;101217.16;5026780;28;19931;-85
2022/06/22 09:15:06;;;;;;;;;;;;;;;29.32;37.24;101222.38;5026274;28;19916;-85
2022/06/22 09:17:31;;;;;;;;;;;;;;;29.31;38.87;101223.41;5023966;28;19919;-86
2022/06/22 09:20:02;;;;;;;;;;;;;;;29.25;38.47;101215.94;5025751;28;19917;-86
2022/06/22 09:22:53;;;;;;;;;;;;;;;29.03;37.99;101226.53;5020718;28;19916;-86
2022/06/22 09:25:21;;;;;;;;;;;;;;;28.89;39.03;101233.50;5030871;28;19967;-86
2022/06/22 09:27:58;;;;;;;;;;;;;;;28.82;35.68;101237.94;5023722;28;19932;-87
2022/06/22 09:30:42;;;;;;;;;;;;;;;29.05;33.08;101232.69;5024311;28;19921;-86
2022/06/22 09:33:10;;;;;;;;;;;;;;;28.91;33.06;101230.59;5025639;28;20380;-87
2022/06/22 09:35:47;;;;;;;;;;;;;;;28.65;37.45;101234.38;5026631;28;19932;-87
2022/06/22 09:38:16;;;;;;;;;;;;;;;28.64;37.96;101240.00;5026930;28;19916;-86
2022/06/22 09:40:41;;;;;;;;;;;;;;;28.89;37.37;101244.38;5027889;28;19927;-86
2022/06/22 09:43:09;;;;;;;;;;;;;;;29.20;33.43;101233.66;5025835;28;20043;-86
2022/06/22 09:46:07;;;;;;;;;;;;;;;29.33;32.07;101232.25;5021764;28;19913;-87
2022/06/22 09:48:32;;;;;;;;;;;;;;;29.40;34.75;101236.00;4996076;28;19924;-86
2022/06/22 09:51:03;;;;;;;;;;;;;;;29.72;34.74;101243.22;5023370;28;19917;-86
2022/06/22 09:53:31;;;;;;;;;;;;;;;29.98;32.70;101240.19;5026035;28;19919;-86
2022/06/22 09:56:19;;;;;;;;;;;;;;;30.01;33.27;101241.72;5023307;28;20336;-86
2022/06/22 09:59:23;;;;;;;;;;;;;;;30.14;35.08;101225.66;5022859;28;19917;-86
2022/06/22 10:01:55;;;;;;;;;;;;;;;30.30;30.10;101230.97;4966589;28;19914;-87
2022/06/22 10:04:39;;;;;;;;;;;;;;;30.32;31.77;101228.94;4970155;28;19922;-87
2022/06/22 10:07:23;;;;;;;;;;;;;;;30.18;30.01;101227.00;5007092;28;19913;-87
2022/06/22 10:10:08;;;;;;;;;;;;;;;30.18;32.18;101227.84;5023947;28;19917;-86
2022/06/22 10:12:54;;;;;;;;;;;;;;;30.69;31.54;101217.22;4986351;28;19913;-87
2022/06/22 10:15:44;;;;;;;;;;;;;;;30.74;28.91;101209.34;4996903;28;19923;-86
2022/06/22 10:18:28;;;;;;;;;;;;;;;30.67;30.02;101223.88;5026341;28;20407;-86
2022/06/22 10:21:05;;;;;;;;;;;;;;;30.90;29.47;101219.25;5029016;28;20284;-86
2022/06/22 10:23:44;;;;;;;;;;;;;;;30.94;28.24;101215.13;5024941;28;20364;-87
2022/06/22 10:26:17;;;;;;;;;;;;;;;30.81;29.45;101209.44;5021864;28;19913;-87
2022/06/22 10:29:01;;;;;;;;;;;;;;;30.94;30.37;101197.91;5027197;28;19952;-87
2022/06/22 10:31:35;;;;;;;;;;;;;;;31.25;29.62;101203.19;5024750;28;19920;-87
2022/06/22 10:34:21;;;;;;;;;;;;;;;31.42;31.09;101201.13;5028201;28;19916;-87
2022/06/22 10:36:55;;;;;;;;;;;;;;;31.60;29.98;101201.59;4988854;28;20272;-86
2022/06/22 10:39:30;;;;;;;;;;;;;;;31.59;27.82;101191.69;5027090;28;19921;-87
2022/06/22 10:45:18;;;;;;;;;;;;;;;31.38;28.19;101195.19;5025160;28;20398;-87
2022/06/22 10:47:44;;;;;;;;;;;;;;;31.50;30.51;101190.94;5023517;28;19920;-87
2022/06/22 10:50:12;;;;;;;;;;;;;;;31.46;27.35;101188.78;5022029;28;20295;-87
2022/06/22 10:52:56;;;;;;;;;;;;;;;31.47;28.22;101191.31;5025733;28;19916;-87
2022/06/22 10:55:21;;;;;;;;;;;;;;;31.50;28.67;101190.94;5024599;28;19916;-87
2022/06/22 10:58:01;;;;;;;;;;;;;;;31.62;30.32;101191.31;5028889;28;19917;-86
2022/06/22 11:00:42;;;;;;;;;;;;;;;31.70;30.30;101187.63;5026396;28;19917;-87
2022/06/22 11:03:10;;;;;;;;;;;;;;;31.82;27.92;101196.19;5028459;28;19913;-87
2022/06/22 11:05:41;;;;;;;;;;;;;;;31.87;30.06;101193.75;5026421;28;20427;-86
2022/06/22 11:08:20;;;;;;;;;;;;;;;32.04;29.43;101194.34;5030568;28;20368;-87
2022/06/22 11:11:01;;;;;;;;;;;;;;;32.27;26.68;101189.56;5027299;28;19987;-86
2022/06/22 11:13:43;;;;;;;;;;;;;;;32.32;26.40;101184.34;5023886;28;20296;-87
2022/06/22 11:16:22;;;;;;;;;;;;;;;32.24;27.03;101196.25;5028038;28;20273;-87
2022/06/22 11:18:47;;;;;;;;;;;;;;;32.19;29.52;101197.91;5024724;28;19996;-87
2022/06/22 11:21:33;;;;;;;;;;;;;;;32.31;26.02;101188.09;5024935;28;20007;-87
2022/06/22 11:24:02;;;;;;;;;;;;;;;32.39;27.18;101192.63;5023727;28;19939;-86
2022/06/22 11:32:20;;;;;;;;;;;;;;;32.67;25.24;101184.47;5025025;28;19912;-87
2022/06/22 11:35:04;;;;;;;;;;;;;;;32.60;25.26;101189.03;5025655;28;19924;-87
2022/06/22 11:37:42;;;;;;;;;;;;;;;32.48;25.82;101192.31;5027491;28;20425;-87
2022/06/22 11:40:22;;;;;;;;;;;;;;;32.52;24.08;101203.72;5020762;28;19974;-87
2022/06/22 11:42:55;;;;;;;;;;;;;;;32.34;24.79;101195.09;5018654;28;20020;-87
2022/06/22 11:48:23;;;;;;;;;;;;;;;32.55;27.67;101205.19;5020463;28;20554;-87
2022/06/22 11:50:48;;;;;;;;;;;;;;;32.77;25.85;101201.38;5025994;28;19916;-87
2022/06/22 11:53:22;;;;;;;;;;;;;;;32.95;26.94;101207.25;5027670;28;20435;-87
2022/06/22 11:55:53;;;;;;;;;;;;;;;32.97;27.42;101204.31;5023947;28;19913;-87
2022/06/22 11:58:27;;;;;;;;;;;;;;;33.08;24.16;101203.75;5025635;28;19917;-87
2022/06/22 12:01:07;;;;;;;;;;;;;;;33.10;26.91;101192.59;5023246;28;19917;-86
2022/06/22 12:03:51;;;;;;;;;;;;;;;33.23;26.75;101189.94;5022171;28;19917;-86
2022/06/22 12:06:35;;;;;;;;;;;;;;;33.34;23.50;101177.53;5021690;28;19917;-87
2022/06/22 12:09:23;;;;;;;;;;;;;;;33.35;23.08;101193.81;5022576;28;19944;-87
2022/06/22 12:11:51;;;;;;;;;;;;;;;33.43;24.05;101199.13;5020934;28;20360;-87
2022/06/22 12:17:32;;;;;;;;;;;;;;;33.57;22.69;101193.72;5024399;28;19937;-87
2022/06/22 12:20:16;;;;;;;;;;;;;;;33.49;22.42;101184.63;5022186;28;19956;-87
2022/06/22 12:22:44;;;;;;;;;;;;;;;33.59;23.76;101175.19;5026688;28;20283;-87
2022/06/22 12:25:27;;;;;;;;;;;;;;;33.80;23.18;101175.03;5018373;28;20000;-87
2022/06/22 12:28:11;;;;;;;;;;;;;;;33.81;24.52;101165.75;5026342;28;19952;-87
2022/06/22 12:30:55;;;;;;;;;;;;;;;33.53;23.41;101165.00;5018206;28;19961;-87
2022/06/22 12:33:26;;;;;;;;;;;;;;;33.01;22.36;101156.28;5023238;28;19998;-87
2022/06/22 12:36:07;;;;;;;;;;;;;;;33.21;25.84;101160.00;5022141;28;19917;-87
2022/06/22 12:38:44;;;;;;;;;;;;;;;33.47;23.89;101142.84;5016798;28;19925;-88
2022/06/22 12:41:28;;;;;;;;;;;;;;;33.63;22.05;101149.03;5023572;28;20375;-87
2022/06/22 12:43:56;;;;;;;;;;;;;;;33.47;23.61;101140.09;5020265;28;19916;-87
2022/06/22 12:46:21;;;;;;;;;;;;;;;33.66;21.68;101143.13;5020348;28;20383;-88
2022/06/22 12:49:05;;;;;;;;;;;;;;;33.90;21.44;101142.56;5022807;28;20007;-86
2022/06/22 12:51:37;;;;;;;;;;;;;;;34.15;22.08;101136.50;5026283;28;19921;-87
2022/06/22 12:54:14;;;;;;;;;;;;;;;33.82;22.89;101131.78;5022527;28;20452;-87
2022/06/22 12:56:42;;;;;;;;;;;;;;;33.67;23.95;101122.88;5022237;28;19916;-87
2022/06/22 12:59:18;;;;;;;;;;;;;;;33.82;21.90;101130.94;5025139;28;19963;-87
2022/06/22 13:01:44;;;;;;;;;;;;;;;33.84;23.30;101124.19;5021962;28;19935;-87
2022/06/22 13:04:14;;;;;;;;;;;;;;;33.72;22.22;101120.38;5022892;28;20436;-87
2022/06/22 13:06:42;;;;;;;;;;;;;;;33.81;21.24;101118.25;5022268;28;19932;-87
2022/06/22 13:09:08;;;;;;;;;;;;;;;33.96;21.68;101119.81;5029466;28;19921;-87
2022/06/22 13:11:35;;;;;;;;;;;;;;;34.12;21.63;101114.97;5028073;28;20506;-88
2022/06/22 13:14:00;;;;;;;;;;;;;;;34.33;22.00;101111.19;5032343;28;20418;-88
2022/06/22 13:16:29;;;;;;;;;;;;;;;34.54;22.68;101107.41;5028836;28;19921;-87
2022/06/22 13:19:16;;;;;;;;;;;;;;;34.59;22.30;101102.94;5028611;28;19956;-87
2022/06/22 13:22:01;;;;;;;;;;;;;;;34.72;21.19;101100.19;5025127;28;19992;-87
2022/06/22 13:24:47;;;;;;;;;;;;;;;34.81;20.90;101098.06;5030518;28;20395;-87